createdAt,value
2019-04-22T00:00:35.997Z,48.4627
2019-04-22T00:01:36.913Z,48.6213
2019-04-22T00:02:50.142Z,48.5817
2019-04-22T00:03:55.202Z,48.5206
2019-04-22T00:05:07.236Z,48.5542
2019-04-22T00:06:25.883Z,48.6305
2019-04-22T00:07:38.894Z,47.0619
2019-04-22T00:10:00.624Z,47.7607
2019-04-22T00:11:03.206Z,47.8767
2019-04-22T00:12:13.767Z,48.0308
2019-04-22T00:13:26.220Z,48.0278
2019-04-22T00:14:24.906Z,48.2414
2019-04-22T00:15:28.076Z,48.1971
2019-04-22T00:16:47.283Z,48.2383
2019-04-22T00:18:07.423Z,47.6371
2019-04-22T00:20:08.630Z,48.1285
2019-04-22T00:21:19.734Z,47.9408
2019-04-22T00:22:23.854Z,48.1498
2019-04-22T00:23:31.663Z,48.3375
2019-04-22T00:24:38.139Z,48.3879
2019-04-22T00:25:50.772Z,48.1041
2019-04-22T00:26:59.613Z,48.2521
2019-04-22T00:28:02.318Z,48.6122
2019-04-22T00:29:36.031Z,48.8823
2019-04-22T00:30:21.969Z,49.4926
2019-04-22T00:31:26.847Z,49.7246
2019-04-22T00:32:32.288Z,49.9397
2019-04-22T00:33:39.322Z,49.7444
2019-04-22T00:34:51.657Z,49.6620
2019-04-22T00:35:55.181Z,49.6742
2019-04-22T00:37:07.920Z,49.2531
2019-04-22T00:38:17.302Z,48.8838
2019-04-22T00:39:31.650Z,49.1539
2019-04-22T00:40:33.906Z,49.4102
2019-04-22T00:41:43.986Z,49.3538
2019-04-22T00:42:47.184Z,49.4926
2019-04-22T00:44:00.403Z,48.6854
2019-04-22T00:45:08.271Z,48.7449
2019-04-22T00:46:11.320Z,48.8685
2019-04-22T00:47:26.690Z,49.0257
2019-04-22T00:48:27.559Z,49.3782
2019-04-22T00:50:06.323Z,49.5842
2019-04-22T00:50:46.350Z,50.0496
2019-04-22T00:51:58.278Z,50.4768
2019-04-22T00:53:04.627Z,50.4402
2019-04-22T00:54:06.031Z,50.8385
2019-04-22T00:56:35.275Z,51.7128
2019-04-22T00:58:41.255Z,52.0500
2019-04-22T00:59:50.794Z,52.4544
2019-04-22T01:00:57.083Z,52.7703
2019-04-22T01:02:07.590Z,53.0678
2019-04-22T01:03:16.159Z,52.8786
2019-04-22T01:04:31.549Z,53.4386
2019-04-22T01:05:27.905Z,53.2143
2019-04-22T01:06:35.886Z,53.7804
2019-04-22T01:07:46.429Z,54.2123
2019-04-22T01:09:58.500Z,54.9523
2019-04-22T01:11:13.414Z,55.1537
2019-04-22T01:12:15.541Z,55.4925
2019-04-22T01:13:24.862Z,55.6771
2019-04-22T01:14:29.882Z,55.9091
2019-04-22T01:15:40.826Z,56.4034
2019-04-22T01:16:50.501Z,56.6064
2019-04-22T01:17:56.231Z,56.5881
2019-04-22T01:19:00.463Z,56.8582
2019-04-22T01:20:25.755Z,56.7376
2019-04-22T01:21:36.914Z,56.9711
2019-04-22T01:22:21.801Z,57.2045
2019-04-22T01:23:28.247Z,57.2152
2019-04-22T01:24:38.638Z,57.2686
2019-04-22T01:25:46.402Z,57.5479
2019-04-22T01:26:52.297Z,57.1908
2019-04-22T01:27:57.216Z,57.0916
2019-04-22T01:29:02.463Z,56.8811
2019-04-22T01:30:10.927Z,57.0459
2019-04-22T01:31:13.538Z,56.8841
2019-04-22T01:32:21.634Z,56.7575
2019-04-22T01:33:29.379Z,56.9299
2019-04-22T01:34:49.349Z,57.1420
2019-04-22T01:35:58.434Z,56.8811
2019-04-22T01:37:03.401Z,56.6156
2019-04-22T01:38:11.975Z,56.9772
2019-04-22T01:39:25.460Z,56.5225
2019-04-22T01:40:40.511Z,56.4050
2019-04-22T01:41:48.924Z,55.7946
2019-04-22T01:42:56.252Z,55.1537
2019-04-22T01:44:10.628Z,54.1070
2019-04-22T01:45:12.447Z,54.0200
2019-04-22T01:46:21.362Z,53.7987
2019-04-22T01:47:25.127Z,53.8399
2019-04-22T01:48:32.493Z,53.8308
2019-04-22T01:49:40.231Z,53.9773
2019-04-22T01:50:46.166Z,53.8415
2019-04-22T01:51:59.750Z,54.0383
2019-04-22T01:53:06.314Z,54.1238
2019-04-22T01:54:14.627Z,54.3297
2019-04-22T01:55:28.827Z,54.7112
2019-04-22T01:56:28.592Z,54.3801
2019-04-22T01:57:34.970Z,54.5419
2019-04-22T01:58:38.253Z,54.7372
2019-04-22T01:59:40.389Z,54.9020
2019-04-22T02:01:00.150Z,55.0439
2019-04-22T02:02:09.207Z,55.1644
2019-04-22T02:03:17.597Z,55.3780
2019-04-22T02:04:30.298Z,55.0530
2019-04-22T02:05:31.530Z,55.0805
2019-04-22T02:06:43.968Z,54.6822
2019-04-22T02:07:51.647Z,54.4808
2019-04-22T02:09:00.596Z,54.7936
2019-04-22T02:10:02.230Z,54.6563
2019-04-22T02:11:24.123Z,54.5586
2019-04-22T02:12:19.913Z,55.1125
2019-04-22T02:13:30.812Z,55.0729
2019-04-22T02:14:39.609Z,54.8791
2019-04-22T02:15:50.100Z,54.9264
2019-04-22T02:16:58.028Z,54.6838
2019-04-22T02:18:01.259Z,54.4808
2019-04-22T02:19:11.212Z,54.5052
2019-04-22T02:20:32.218Z,54.1787
2019-04-22T02:21:20.173Z,54.1878
2019-04-22T02:22:50.065Z,54.3587
2019-04-22T02:23:47.056Z,55.1537
2019-04-22T02:25:09.472Z,54.8424
2019-04-22T02:27:15.025Z,54.6471
2019-04-22T02:29:26.342Z,54.4488
2019-04-22T02:30:37.258Z,54.3954
2019-04-22T02:31:59.434Z,54.0322
2019-04-22T02:36:30.104Z,54.0414
2019-04-22T02:37:18.778Z,53.9315
2019-04-22T02:38:47.100Z,53.5119
2019-04-22T02:39:38.335Z,53.6065
2019-04-22T02:41:08.794Z,53.5653
2019-04-22T02:41:52.815Z,53.5332
2019-04-22T02:43:01.691Z,53.6538
2019-04-22T02:45:18.283Z,53.4234
2019-04-22T02:48:53.336Z,53.3013
2019-04-22T02:49:47.112Z,53.4661
2019-04-22T02:51:06.186Z,53.5744
2019-04-22T02:52:06.418Z,53.1456
2019-04-22T02:53:36.553Z,53.3974
2019-04-22T02:58:00.889Z,53.2631
2019-04-22T02:59:09.478Z,53.5485
2019-04-22T03:00:05.570Z,53.4188
2019-04-22T03:02:19.617Z,53.2174
2019-04-22T03:03:41.655Z,53.2814
2019-04-22T03:04:35.744Z,53.0037
2019-04-22T03:06:07.429Z,53.0632
2019-04-22T03:06:56.101Z,53.2830
2019-04-22T03:10:41.848Z,52.8603
2019-04-22T03:11:31.120Z,52.9213
2019-04-22T03:12:29.421Z,52.8832
2019-04-22T03:13:47.331Z,53.1319
2019-04-22T03:16:11.622Z,52.8008
2019-04-22T03:17:03.479Z,52.9122
2019-04-22T03:19:43.431Z,52.6452
2019-04-22T03:20:29.138Z,52.7749
2019-04-22T03:21:36.711Z,52.5856
2019-04-22T03:26:27.257Z,53.0129
2019-04-22T03:28:33.012Z,52.7733
2019-04-22T03:29:44.534Z,52.6558
2019-04-22T03:32:17.494Z,52.9534
2019-04-22T03:33:11.989Z,52.6650
2019-04-22T03:35:37.398Z,51.8044
2019-04-22T03:36:58.260Z,51.8669
2019-04-22T03:39:01.406Z,52.0378
2019-04-22T03:39:59.380Z,51.4656
2019-04-22T03:40:52.669Z,51.8547
2019-04-22T03:46:34.788Z,51.7998
2019-04-22T03:47:52.941Z,51.7357
2019-04-22T03:49:03.862Z,51.6487
2019-04-22T03:50:04.599Z,51.4107
2019-04-22T03:51:07.521Z,51.5160
2019-04-22T03:53:33.057Z,52.0592
2019-04-22T03:55:41.229Z,51.5145
2019-04-22T03:59:13.121Z,51.5618
2019-04-22T04:01:32.039Z,51.5373
2019-04-22T04:02:35.726Z,51.3039
2019-04-22T04:03:30.616Z,51.4321
2019-04-22T04:04:37.113Z,51.2947
2019-04-22T04:08:16.405Z,51.4412
2019-04-22T04:09:19.340Z,51.3130
2019-04-22T04:10:32.234Z,51.3054
2019-04-22T04:11:38.398Z,51.0948
2019-04-22T04:12:41.609Z,51.2001
2019-04-22T04:15:14.087Z,52.0562
2019-04-22T04:15:57.679Z,51.6167
2019-04-22T04:18:13.341Z,51.4504
2019-04-22T04:19:35.961Z,51.3924
2019-04-22T04:26:17.416Z,51.6243
2019-04-22T04:27:49.132Z,51.6442
2019-04-22T04:30:40.054Z,51.9280
2019-04-22T04:34:20.057Z,52.1340
2019-04-22T04:36:28.741Z,51.7998
2019-04-22T04:39:26.455Z,51.7891
2019-04-22T04:39:53.161Z,52.1385
2019-04-22T04:41:00.418Z,52.1050
2019-04-22T04:42:16.203Z,52.1736
2019-04-22T04:45:38.242Z,52.3445
2019-04-22T04:46:44.768Z,52.5765
2019-04-22T04:49:02.682Z,52.2164
2019-04-22T04:51:16.025Z,52.0775
2019-04-22T04:54:35.580Z,52.8191
2019-04-22T04:55:34.975Z,52.8984
2019-04-22T04:56:46.552Z,52.8893
2019-04-22T04:59:16.994Z,52.7840
2019-04-22T05:01:23.348Z,52.8664
2019-04-22T05:02:41.019Z,53.3150
2019-04-22T05:03:48.864Z,53.0220
2019-04-22T05:04:56.722Z,53.1365
2019-04-22T05:06:03.500Z,53.4829
2019-04-22T05:09:59.645Z,52.7230
2019-04-22T05:10:47.534Z,52.7230
2019-04-22T05:12:55.639Z,52.8710
2019-04-22T05:14:07.152Z,52.9076
2019-04-22T05:15:00.895Z,52.7932
2019-04-22T05:16:17.560Z,52.5948
2019-04-22T05:17:12.899Z,52.0226
2019-04-22T05:19:26.125Z,52.1019
2019-04-22T05:20:46.164Z,51.9127
2019-04-22T05:21:39.644Z,52.0455
2019-04-22T05:22:44.486Z,52.1935
2019-04-22T05:24:02.712Z,51.8761
2019-04-22T05:25:04.832Z,52.0272
2019-04-22T05:28:48.154Z,52.4071
2019-04-22T05:29:55.440Z,52.5002
2019-04-22T05:30:39.465Z,52.2393
2019-04-22T05:31:56.869Z,52.2713
2019-04-22T05:33:14.019Z,52.4819
2019-04-22T05:34:09.588Z,52.5643
2019-04-22T05:35:14.452Z,52.7153
2019-04-22T05:37:37.950Z,52.6497
2019-04-22T05:38:53.670Z,52.6589
2019-04-22T05:39:49.580Z,52.5826
2019-04-22T05:40:56.558Z,52.9168
2019-04-22T05:42:10.406Z,52.4132
2019-04-22T05:43:07.993Z,52.7733
2019-04-22T05:44:34.405Z,52.9244
2019-04-22T05:45:40.299Z,52.7382
2019-04-22T05:46:34.503Z,52.5078
2019-04-22T05:47:46.177Z,52.8664
2019-04-22T05:48:53.773Z,52.8420
2019-04-22T05:49:48.307Z,53.2876
2019-04-22T05:51:27.128Z,53.4005
2019-04-22T05:52:14.841Z,53.1853
2019-04-22T05:53:20.104Z,53.6492
2019-04-22T05:54:34.721Z,53.4661
2019-04-22T05:55:41.531Z,52.9854
2019-04-22T05:56:40.987Z,52.2118
2019-04-22T05:57:57.701Z,52.2393
2019-04-22T05:59:04.380Z,52.3583
2019-04-22T06:00:13.885Z,51.7861
2019-04-22T06:02:43.536Z,51.1315
2019-04-22T06:03:37.673Z,50.5028
2019-04-22T06:04:48.523Z,50.3288
2019-04-22T06:05:47.886Z,50.4494
2019-04-22T06:06:53.571Z,50.7195
2019-04-22T06:08:04.102Z,50.1595
2019-04-22T06:09:22.452Z,49.9718
2019-04-22T06:10:29.355Z,49.6742
2019-04-22T06:11:29.845Z,49.5521
2019-04-22T06:12:31.469Z,49.8634
2019-04-22T06:13:38.885Z,49.6605
2019-04-22T06:14:55.693Z,49.6193
2019-04-22T06:15:58.996Z,49.5247
2019-04-22T06:17:10.679Z,49.3965
2019-04-22T06:19:27.882Z,49.0806
2019-04-22T06:20:37.087Z,49.0654
2019-04-22T06:21:46.185Z,48.7678
2019-04-22T06:22:57.109Z,48.8106
2019-04-22T06:24:05.138Z,48.7129
2019-04-22T06:25:17.191Z,48.7648
2019-04-22T06:26:19.512Z,48.6259
2019-04-22T06:28:50.087Z,48.6458
2019-04-22T06:29:37.013Z,49.1585
2019-04-22T06:30:53.486Z,48.7083
2019-04-22T06:32:17.462Z,48.5267
2019-04-22T06:33:08.524Z,48.7266
2019-04-22T06:34:17.798Z,48.6625
2019-04-22T06:35:29.744Z,48.5359
2019-04-22T06:36:31.057Z,48.5802
2019-04-22T06:37:43.318Z,48.9418
2019-04-22T06:39:01.611Z,49.1341
2019-04-22T06:39:55.532Z,49.0654
2019-04-22T06:41:04.274Z,49.0944
2019-04-22T06:43:16.270Z,48.8273
2019-04-22T06:44:24.100Z,49.1585
2019-04-22T06:45:44.991Z,49.1676
2019-04-22T06:46:39.657Z,49.3004
2019-04-22T06:48:57.281Z,48.7175
2019-04-22T06:50:07.590Z,48.6854
2019-04-22T06:51:14.689Z,48.6992
2019-04-22T06:52:19.620Z,48.5954
2019-04-22T06:53:29.708Z,48.6229
2019-04-22T06:54:40.670Z,48.7770
2019-04-22T06:55:48.204Z,49.2546
2019-04-22T06:56:54.662Z,49.2500
2019-04-22T06:57:58.138Z,49.1859
2019-04-22T06:59:06.888Z,49.0669
2019-04-22T07:00:19.386Z,48.5908
2019-04-22T07:02:47.168Z,47.8111
2019-04-22T07:04:55.156Z,48.0629
2019-04-22T07:05:59.543Z,48.0690
2019-04-22T07:07:08.348Z,47.6371
2019-04-22T07:08:30.699Z,47.9271
2019-04-22T07:11:37.924Z,48.5527
2019-04-22T07:12:47.209Z,48.3848
2019-04-22T07:14:00.085Z,48.6992
2019-04-22T07:15:02.775Z,48.8228
2019-04-22T07:16:05.101Z,48.5573
2019-04-22T07:17:15.935Z,49.3400
2019-04-22T07:19:33.640Z,49.2943
2019-04-22T07:20:45.879Z,49.6986
2019-04-22T07:21:50.620Z,49.8207
2019-04-22T07:23:06.797Z,49.9718
2019-04-22T07:24:21.249Z,50.0175
2019-04-22T07:25:10.286Z,50.0923
2019-04-22T07:26:20.341Z,50.5531
2019-04-22T07:27:27.791Z,50.5303
2019-04-22T07:28:34.407Z,50.5303
2019-04-22T07:29:46.985Z,50.5989
2019-04-22T07:30:54.530Z,50.5531
2019-04-22T07:32:04.729Z,50.4585
2019-04-22T07:33:31.299Z,50.8751
2019-04-22T07:34:19.736Z,50.8827
2019-04-22T07:35:28.862Z,50.7912
2019-04-22T07:36:45.676Z,51.1269
2019-04-22T07:38:43.913Z,50.7790
2019-04-22T07:39:50.190Z,50.3670
2019-04-22T07:40:59.312Z,50.3746
2019-04-22T07:42:16.755Z,50.4341
2019-04-22T07:43:29.185Z,51.0567
2019-04-22T07:44:31.192Z,50.9880
2019-04-22T07:45:36.069Z,51.0170
2019-04-22T07:46:54.257Z,50.6813
2019-04-22T07:48:04.008Z,49.8939
2019-04-22T07:49:02.984Z,50.1518
2019-04-22T07:50:22.830Z,50.2373
2019-04-22T07:52:22.533Z,50.4936
2019-04-22T07:53:28.886Z,50.5730
2019-04-22T07:54:41.640Z,50.8232
2019-04-22T07:55:47.526Z,50.5592
2019-04-22T07:57:02.670Z,50.5409
2019-04-22T07:58:07.373Z,50.3929
2019-04-22T07:59:15.598Z,50.5364
2019-04-22T08:00:22.699Z,50.5028
2019-04-22T08:01:26.690Z,50.5135
2019-04-22T08:02:37.893Z,50.3334
2019-04-22T08:04:15.225Z,49.9046
2019-04-22T08:06:11.684Z,48.6488
2019-04-22T08:07:14.362Z,48.6458
2019-04-22T08:08:21.219Z,48.5313
2019-04-22T08:09:34.073Z,48.8243
2019-04-22T08:10:29.800Z,48.7694
2019-04-22T08:11:55.320Z,48.8731
2019-04-22T08:13:51.256Z,47.7943
2019-04-22T08:15:05.657Z,47.9454
2019-04-22T08:16:10.562Z,48.0629
2019-04-22T08:17:45.149Z,48.2017
2019-04-22T08:18:37.429Z,48.1178
2019-04-22T08:19:53.942Z,47.9667
2019-04-22T08:20:58.698Z,47.5517
2019-04-22T08:21:50.722Z,48.0217
2019-04-22T08:23:04.839Z,48.0186
2019-04-22T08:24:13.073Z,47.2251
2019-04-22T08:25:20.386Z,47.3167
2019-04-22T08:26:28.393Z,47.3869
2019-04-22T08:27:33.456Z,47.0695
2019-04-22T08:28:46.505Z,47.1992
2019-04-22T08:29:58.596Z,47.0695
2019-04-22T08:30:59.673Z,45.6687
2019-04-22T08:32:05.085Z,45.4215
2019-04-22T08:33:15.883Z,45.2262
2019-04-22T08:35:49.083Z,44.5212
2019-04-22T08:37:51.170Z,44.2100
2019-04-22T08:39:00.674Z,44.0711
2019-04-22T08:40:09.509Z,43.9841
2019-04-22T08:41:16.453Z,43.6606
2019-04-22T08:42:27.192Z,43.2624
2019-04-22T08:43:36.457Z,43.2990
2019-04-22T08:44:52.038Z,43.1373
2019-04-22T08:45:56.939Z,42.9374
2019-04-22T08:46:56.131Z,42.4887
2019-04-22T08:47:59.171Z,41.4481
2019-04-22T08:49:05.637Z,41.5808
2019-04-22T08:50:14.100Z,41.7197
2019-04-22T08:52:54.883Z,41.2116
2019-04-22T08:53:45.172Z,41.4221
2019-04-22T08:54:50.287Z,41.5915
2019-04-22T08:56:10.902Z,41.7838
2019-04-22T08:57:06.662Z,41.6464
2019-04-22T08:58:20.280Z,41.4069
2019-04-22T08:59:34.286Z,41.1154
2019-04-22T09:00:34.194Z,40.7126
2019-04-22T09:01:36.079Z,40.5020
2019-04-22T09:02:52.192Z,40.7950
2019-04-22T09:03:52.371Z,40.7935
2019-04-22T09:04:53.773Z,40.8667
2019-04-22T09:06:15.266Z,41.2848
2019-04-22T09:07:20.931Z,40.4776
2019-04-22T09:08:26.286Z,40.7492
2019-04-22T09:09:36.277Z,41.0742
2019-04-22T09:10:54.137Z,39.9619
2019-04-22T09:11:46.978Z,39.4629
2019-04-22T09:14:01.678Z,39.4263
2019-04-22T09:15:11.275Z,39.7330
2019-04-22T09:16:27.967Z,39.9344
2019-04-22T09:17:27.813Z,39.8276
2019-04-22T09:18:39.869Z,40.4425
2019-04-22T09:19:40.561Z,39.9893
2019-04-22T09:20:57.305Z,40.5478
2019-04-22T09:22:00.391Z,40.0580
2019-04-22T09:23:12.898Z,39.4858
2019-04-22T09:24:16.059Z,39.4812
2019-04-22T09:25:26.966Z,39.1821
2019-04-22T09:26:41.896Z,39.2462
2019-04-22T09:27:59.469Z,39.5499
2019-04-22T09:28:52.357Z,39.1180
2019-04-22T09:29:58.444Z,39.4354
2019-04-22T09:31:06.629Z,39.7147
2019-04-22T09:32:15.343Z,39.0539
2019-04-22T09:33:20.383Z,39.4705
2019-04-22T09:34:32.007Z,39.0417
2019-04-22T09:35:41.418Z,38.8434
2019-04-22T09:36:42.049Z,38.2864
2019-04-22T09:38:00.250Z,38.5779
2019-04-22T09:39:02.894Z,38.6282
2019-04-22T09:40:13.073Z,38.8037
2019-04-22T09:41:15.212Z,38.4405
2019-04-22T09:42:24.636Z,38.6694
2019-04-22T09:43:32.238Z,38.3856
2019-04-22T09:44:41.975Z,38.0941
2019-04-22T09:45:47.929Z,38.5382
2019-04-22T09:46:57.932Z,38.5382
2019-04-22T09:48:09.860Z,38.6343
2019-04-22T09:49:12.090Z,38.6938
2019-04-22T09:50:24.190Z,38.7381
2019-04-22T09:51:25.342Z,38.1811
2019-04-22T09:52:37.531Z,37.7874
2019-04-22T09:53:47.196Z,38.5336
2019-04-22T09:55:57.221Z,39.0356
2019-04-22T09:57:12.053Z,38.4680
2019-04-22T09:58:21.281Z,38.4726
2019-04-22T09:59:20.669Z,38.4237
2019-04-22T10:00:37.646Z,38.8128
2019-04-22T10:02:59.264Z,39.6857
2019-04-22T10:05:08.667Z,39.9145
2019-04-22T10:06:22.854Z,40.2533
2019-04-22T10:07:20.967Z,40.2686
2019-04-22T10:08:32.010Z,39.6368
2019-04-22T10:10:01.482Z,38.3276
2019-04-22T10:10:51.625Z,38.3047
2019-04-22T10:11:50.916Z,39.1104
2019-04-22T10:13:06.401Z,39.0036
2019-04-22T10:15:14.981Z,38.6572
2019-04-22T10:17:32.212Z,38.3413
2019-04-22T10:18:43.619Z,38.3688
2019-04-22T10:19:48.011Z,38.1201
2019-04-22T10:21:02.955Z,37.1939
2019-04-22T10:22:08.558Z,36.7559
2019-04-22T10:23:17.580Z,36.6644
2019-04-22T10:24:21.586Z,36.4492
2019-04-22T10:25:29.856Z,36.0647
2019-04-22T10:26:39.158Z,35.4330
2019-04-22T10:27:51.316Z,35.8633
2019-04-22T10:29:00.781Z,35.5413
2019-04-22T10:30:00.258Z,36.1059
2019-04-22T10:31:09.926Z,36.0418
2019-04-22T10:32:14.841Z,34.9249
2019-04-22T10:33:24.018Z,35.7031
2019-04-22T10:34:16.794Z,35.4467
2019-04-22T10:35:19.243Z,34.9477
2019-04-22T10:36:23.618Z,34.2657
2019-04-22T10:37:26.404Z,34.5724
2019-04-22T10:38:30.416Z,34.4015
2019-04-22T10:39:42.269Z,34.6685
2019-04-22T10:40:42.721Z,34.2779
2019-04-22T10:41:46.488Z,34.4625
2019-04-22T10:42:49.506Z,34.7402
2019-04-22T10:43:52.934Z,34.5708
2019-04-22T10:44:57.289Z,33.5973
2019-04-22T10:46:00.288Z,34.0993
2019-04-22T10:47:04.219Z,33.8354
2019-04-22T10:48:08.224Z,31.4504
2019-04-22T10:49:12.536Z,31.8486
2019-04-22T10:50:16.490Z,32.3186
2019-04-22T10:51:19.310Z,31.8196
2019-04-22T10:52:23.651Z,31.0277
2019-04-22T10:53:26.326Z,30.3136
2019-04-22T10:54:29.536Z,30.3243
2019-04-22T10:55:32.319Z,30.9102
2019-04-22T10:56:35.293Z,30.8415
2019-04-22T10:57:38.998Z,31.3863
2019-04-22T10:58:42.648Z,31.9448
2019-04-22T10:59:45.275Z,30.4006
2019-04-22T11:00:49.893Z,30.5745
2019-04-22T11:01:54.820Z,29.2287
2019-04-22T11:02:58.286Z,29.0745
2019-04-22T11:04:01.544Z,30.1488
2019-04-22T11:05:04.311Z,30.4158
2019-04-22T11:06:07.516Z,29.5949
2019-04-22T11:07:12.781Z,28.8548
2019-04-22T11:08:25.637Z,30.2495
2019-04-22T11:09:25.256Z,30.7073
2019-04-22T11:10:44.547Z,30.4738
2019-04-22T11:11:46.618Z,30.5745
2019-04-22T11:12:45.106Z,29.5872
2019-04-22T11:13:49.526Z,29.3675
2019-04-22T11:14:53.745Z,29.7780
2019-04-22T11:15:58.460Z,31.0368
2019-04-22T11:17:03.391Z,31.4916
2019-04-22T11:18:07.471Z,31.2673
2019-04-22T11:19:11.767Z,31.1116
2019-04-22T11:20:15.584Z,31.9158
2019-04-22T11:21:19.810Z,31.8257
2019-04-22T11:22:28.525Z,31.7830
2019-04-22T11:23:32.396Z,32.9320
2019-04-22T11:24:36.857Z,33.1701
2019-04-22T11:25:41.602Z,33.2250
2019-04-22T11:26:45.287Z,34.0307
2019-04-22T11:27:49.403Z,33.7301
2019-04-22T11:28:53.802Z,34.1466
2019-04-22T11:29:57.477Z,34.3206
2019-04-22T11:31:00.808Z,34.6365
2019-04-22T11:32:04.400Z,34.6807
2019-04-22T11:33:08.578Z,35.0622
2019-04-22T11:34:11.281Z,35.2041
2019-04-22T11:35:14.316Z,35.4559
2019-04-22T11:36:17.772Z,35.3811
2019-04-22T11:37:22.424Z,35.7748
2019-04-22T11:38:26.797Z,35.5825
2019-04-22T11:39:32.799Z,35.3353
2019-04-22T11:40:42.193Z,35.3124
2019-04-22T11:41:46.509Z,35.3399
2019-04-22T11:42:50.279Z,35.5200
2019-04-22T11:43:53.629Z,34.5434
2019-04-22T11:44:57.139Z,34.0124
2019-04-22T11:46:00.306Z,33.8613
2019-04-22T11:47:03.488Z,34.1100
2019-04-22T11:48:06.290Z,33.9757
2019-04-22T11:49:09.871Z,33.8811
2019-04-22T11:50:13.331Z,33.7606
2019-04-22T11:51:16.293Z,33.7423
2019-04-22T11:52:20.504Z,34.0871
2019-04-22T11:53:24.730Z,33.5088
2019-04-22T11:54:28.643Z,32.6024
2019-04-22T11:55:32.600Z,32.9656
2019-04-22T11:56:36.921Z,32.6070
2019-04-22T11:57:41.369Z,32.3232
2019-04-22T11:58:44.584Z,32.7489
2019-04-22T11:59:46.973Z,32.7398
2019-04-22T12:00:51.954Z,33.0098
2019-04-22T12:01:57.004Z,33.1014
2019-04-22T12:03:00.851Z,32.4666
2019-04-22T12:04:04.365Z,33.2998
2019-04-22T12:05:07.950Z,33.8476
2019-04-22T12:06:11.336Z,33.4646
2019-04-22T12:07:15.087Z,33.2616
2019-04-22T12:08:18.305Z,33.0831
2019-04-22T12:09:21.577Z,33.5637
2019-04-22T12:10:34.465Z,33.2815
2019-04-22T12:11:34.493Z,32.0043
2019-04-22T12:12:37.295Z,32.5307
2019-04-22T12:13:40.322Z,33.1762
2019-04-22T12:14:43.344Z,33.4417
2019-04-22T12:15:46.755Z,32.5063
2019-04-22T12:16:50.364Z,33.2860
2019-04-22T12:17:53.356Z,34.1634
2019-04-22T12:18:58.532Z,33.5607
2019-04-22T12:20:05.599Z,32.3690
2019-04-22T12:21:10.968Z,33.0571
2019-04-22T12:22:15.351Z,33.9086
2019-04-22T12:23:19.024Z,34.1085
2019-04-22T12:24:23.509Z,33.4051
2019-04-22T12:25:34.800Z,33.0205
2019-04-22T12:26:35.291Z,33.1167
2019-04-22T12:27:38.988Z,33.4829
2019-04-22T12:28:42.286Z,32.7535
2019-04-22T12:29:45.368Z,33.3532
2019-04-22T12:30:49.317Z,32.5078
2019-04-22T12:31:53.521Z,32.6406
2019-04-22T12:32:58.134Z,31.6518
2019-04-22T12:34:01.503Z,30.9224
2019-04-22T12:35:05.267Z,31.7479
2019-04-22T12:36:08.593Z,32.6497
2019-04-22T12:37:17.421Z,32.1325
2019-04-22T12:38:20.228Z,31.3863
2019-04-22T12:39:23.339Z,32.1401
2019-04-22T12:40:37.421Z,32.3156
2019-04-22T12:41:34.310Z,33.1518
2019-04-22T12:42:37.644Z,32.7169
2019-04-22T12:43:41.010Z,32.6116
2019-04-22T12:44:45.837Z,32.5032
2019-04-22T12:45:50.381Z,32.9274
2019-04-22T12:46:54.504Z,33.3318
2019-04-22T12:47:57.907Z,33.4005
2019-04-22T12:49:00.378Z,32.6863
2019-04-22T12:50:12.700Z,32.7031
2019-04-22T12:51:11.301Z,32.2591
2019-04-22T12:52:24.341Z,32.4712
2019-04-22T12:53:25.694Z,32.7504
2019-04-22T12:54:31.113Z,32.4102
2019-04-22T12:55:34.452Z,32.9458
2019-04-22T12:56:37.613Z,32.8862
2019-04-22T12:57:40.843Z,32.2789
2019-04-22T12:58:45.585Z,32.7230
2019-04-22T12:59:49.832Z,32.8908
2019-04-22T13:00:54.569Z,32.8771
2019-04-22T13:01:58.577Z,32.9656
2019-04-22T13:03:01.357Z,33.1014
2019-04-22T13:04:09.409Z,33.5317
2019-04-22T13:05:12.493Z,33.2753
2019-04-22T13:06:15.279Z,33.2815
2019-04-22T13:07:19.775Z,34.0490
2019-04-22T13:08:23.541Z,34.0185
2019-04-22T13:09:27.503Z,33.7804
2019-04-22T13:10:42.980Z,33.7621
2019-04-22T13:11:38.863Z,33.4051
2019-04-22T13:12:44.485Z,32.8725
2019-04-22T13:13:47.324Z,33.3730
2019-04-22T13:14:50.717Z,33.5958
2019-04-22T13:15:54.959Z,33.8674
2019-04-22T13:16:59.679Z,33.6965
2019-04-22T13:18:12.862Z,33.6645
2019-04-22T13:19:12.942Z,33.9803
2019-04-22T13:20:20.148Z,33.4188
2019-04-22T13:21:24.656Z,33.6187
2019-04-22T13:22:27.268Z,33.6370
2019-04-22T13:23:31.673Z,33.8720
2019-04-22T13:24:36.169Z,33.3227
2019-04-22T13:25:40.821Z,32.7550
2019-04-22T13:26:45.264Z,32.3751
2019-04-22T13:27:49.097Z,32.1233
2019-04-22T13:28:52.298Z,32.9381
2019-04-22T13:29:55.302Z,32.4056
2019-04-22T13:31:01.416Z,32.1996
2019-04-22T13:32:06.735Z,31.9036
2019-04-22T13:33:10.752Z,32.2194
2019-04-22T13:34:21.577Z,31.9158
2019-04-22T13:35:24.112Z,32.2728
2019-04-22T13:36:30.286Z,32.2774
2019-04-22T13:37:35.030Z,32.2927
2019-04-22T13:38:38.733Z,32.1904
2019-04-22T13:39:41.356Z,31.7800
2019-04-22T13:40:57.812Z,31.5084
2019-04-22T13:41:59.586Z,32.2835
2019-04-22T13:43:00.759Z,31.7891
2019-04-22T13:44:04.978Z,31.2535
2019-04-22T13:45:09.537Z,31.9799
2019-04-22T13:46:12.501Z,31.8669
2019-04-22T13:47:32.628Z,31.6426
2019-04-22T13:48:38.794Z,31.4000
2019-04-22T13:52:20.696Z,31.9814
2019-04-22T13:53:42.608Z,31.7143
2019-04-22T13:54:51.075Z,31.2703
2019-04-22T13:55:41.464Z,31.7845
2019-04-22T13:56:43.150Z,31.3405
2019-04-22T13:57:47.117Z,31.3893
2019-04-22T13:58:52.453Z,30.9545
2019-04-22T13:59:52.363Z,31.3680
2019-04-22T14:00:56.444Z,31.3390
2019-04-22T14:02:00.740Z,31.3176
2019-04-22T14:03:04.612Z,30.6584
2019-04-22T14:04:07.319Z,31.0002
2019-04-22T14:05:10.613Z,31.3756
2019-04-22T14:06:13.300Z,31.6320
2019-04-22T14:07:19.005Z,31.1162
2019-04-22T14:08:23.032Z,31.6655
2019-04-22T14:09:26.469Z,31.4229
2019-04-22T14:10:30.227Z,30.1549
2019-04-22T14:11:43.320Z,30.1442
2019-04-22T14:12:42.542Z,30.3456
2019-04-22T14:13:46.150Z,30.1732
2019-04-22T14:14:50.655Z,30.5791
2019-04-22T14:15:55.344Z,30.1762
2019-04-22T14:16:58.783Z,30.1503
2019-04-22T14:18:03.074Z,30.3914
2019-04-22T14:19:07.723Z,30.5196
2019-04-22T14:20:11.294Z,30.7408
2019-04-22T14:21:14.926Z,30.8553
2019-04-22T14:22:18.329Z,30.6722
2019-04-22T14:23:22.561Z,30.6767
2019-04-22T14:24:26.009Z,30.7668
2019-04-22T14:25:30.481Z,31.0826
2019-04-22T14:26:44.254Z,31.3573
2019-04-22T14:27:52.442Z,31.0780
2019-04-22T14:28:50.328Z,31.4595
2019-04-22T14:29:53.597Z,31.9585
2019-04-22T14:30:56.925Z,32.2927
2019-04-22T14:32:08.623Z,31.7693
2019-04-22T14:33:09.766Z,32.3247
2019-04-22T14:34:13.836Z,32.6436
2019-04-22T14:35:18.542Z,32.1950
2019-04-22T14:36:23.401Z,32.3751
2019-04-22T14:37:27.728Z,32.6863
2019-04-22T14:38:32.396Z,33.0007
2019-04-22T14:39:35.772Z,33.5103
2019-04-22T14:40:41.433Z,33.6843
2019-04-22T14:43:17.591Z,34.0368
2019-04-22T14:44:12.633Z,33.7652
2019-04-22T14:45:05.180Z,33.0694
2019-04-22T14:45:42.298Z,33.0510
2019-04-22T14:46:51.157Z,31.8608
2019-04-22T14:47:58.197Z,32.0089
2019-04-22T14:48:57.330Z,32.6268
2019-04-22T14:50:05.025Z,32.6909
2019-04-22T14:51:07.719Z,32.8771
2019-04-22T14:52:21.573Z,33.1762
2019-04-22T14:53:27.567Z,33.1563
2019-04-22T14:54:31.298Z,33.1121
2019-04-22T14:55:25.931Z,33.4874
2019-04-22T14:56:30.565Z,33.6065
2019-04-22T14:57:34.290Z,32.9274
2019-04-22T14:58:40.563Z,33.0373
2019-04-22T14:59:44.302Z,33.2296
2019-04-22T15:00:49.089Z,33.1304
2019-04-22T15:01:53.928Z,32.7276
2019-04-22T15:02:57.593Z,33.0968
2019-04-22T15:04:02.822Z,33.3166
2019-04-22T15:05:06.315Z,32.9335
2019-04-22T15:06:10.526Z,32.7993
2019-04-22T15:07:14.846Z,33.1991
2019-04-22T15:08:19.160Z,33.5042
2019-04-22T15:09:24.001Z,33.1426
2019-04-22T15:10:28.220Z,33.0526
2019-04-22T15:11:43.695Z,33.4905
2019-04-22T15:12:46.127Z,33.5470